createdAt,value
2022-09-22T00:01:43.216Z,12.27
2022-09-22T00:04:13.671Z,15.83
2022-09-22T00:06:47.862Z,13.43
2022-09-22T00:09:21.455Z,12.07
2022-09-22T00:11:54.039Z,12.70
2022-09-22T00:14:28.401Z,14.20
2022-09-22T00:17:02.526Z,10.27
2022-09-22T00:19:37.974Z,13.53
2022-09-22T00:22:06.995Z,11.97
2022-09-22T00:24:35.040Z,13.90
2022-09-22T00:27:02.914Z,15.60
2022-09-22T00:29:31.471Z,11.67
2022-09-22T00:32:03.549Z,12.93
2022-09-22T00:34:32.564Z,12.60
2022-09-22T00:37:00.320Z,17.43
2022-09-22T00:39:30.891Z,14.10
2022-09-22T00:41:59.194Z,16.03
2022-09-22T00:44:43.847Z,13.73
2022-09-22T00:47:36.502Z,13.20
2022-09-22T00:50:24.371Z,12.73
2022-09-22T00:53:12.989Z,10.60
2022-09-22T00:56:08.975Z,18.63
2022-09-22T00:59:10.344Z,14.50
2022-09-22T01:01:39.435Z,11.90
2022-09-22T01:04:08.547Z,16.27
2022-09-22T01:06:40.925Z,14.90
2022-09-22T01:09:10.502Z,16.73
2022-09-22T01:11:41.726Z,12.10
2022-09-22T01:15:10.652Z,18.23
2022-09-22T01:18:33.959Z,16.10
2022-09-22T01:21:40.079Z,19.17
2022-09-22T01:25:16.038Z,16.80
2022-09-22T01:28:36.309Z,16.70
2022-09-22T01:32:18.880Z,14.13
2022-09-22T01:35:27.888Z,14.30
2022-09-22T01:38:30.371Z,14.37
2022-09-22T01:41:26.736Z,17.30
2022-09-22T01:44:10.070Z,13.20
2022-09-22T01:46:55.964Z,14.80
2022-09-22T01:49:30.683Z,16.13
2022-09-22T01:52:33.690Z,15.53
2022-09-22T01:55:23.988Z,16.27
2022-09-22T01:58:12.870Z,16.43
2022-09-22T02:01:14.411Z,17.17
2022-09-22T02:04:18.416Z,19.83
2022-09-22T02:07:09.701Z,17.73
2022-09-22T02:09:42.567Z,21.67
2022-09-22T02:12:10.218Z,19.70
2022-09-22T02:14:37.872Z,16.13
2022-09-22T02:17:08.892Z,15.13
2022-09-22T02:19:41.639Z,16.83
2022-09-22T02:22:12.312Z,18.37
2022-09-22T02:24:47.297Z,21.07
2022-09-22T02:27:36.485Z,18.33
2022-09-22T02:30:14.258Z,23.00
2022-09-22T02:32:51.329Z,18.03
2022-09-22T02:35:20.852Z,20.03
2022-09-22T02:38:21.014Z,14.30
2022-09-22T02:41:11.026Z,20.97
2022-09-22T02:43:59.121Z,20.97
2022-09-22T02:46:46.308Z,21.10
2022-09-22T02:49:20.036Z,16.67
2022-09-22T02:51:50.464Z,16.30
2022-09-22T02:54:18.198Z,21.70
2022-09-22T02:56:46.592Z,22.53
2022-09-22T02:59:14.578Z,18.53
2022-09-22T03:01:43.058Z,20.50
2022-09-22T03:04:10.923Z,19.33
2022-09-22T03:06:38.713Z,21.50
2022-09-22T03:09:06.669Z,22.87
2022-09-22T03:11:34.321Z,18.30
2022-09-22T03:14:01.948Z,17.37
2022-09-22T03:16:29.635Z,18.97
2022-09-22T03:18:57.487Z,19.03
2022-09-22T03:21:25.225Z,22.67
2022-09-22T03:23:53.165Z,17.10
2022-09-22T03:26:20.900Z,17.63
2022-09-22T03:28:48.832Z,18.80
2022-09-22T03:31:16.609Z,20.80
2022-09-22T03:33:44.817Z,22.93
2022-09-22T03:36:14.271Z,24.57
2022-09-22T03:38:41.868Z,18.30
2022-09-22T03:41:10.186Z,21.73
2022-09-22T03:43:38.044Z,17.73
2022-09-22T03:46:05.713Z,19.67
2022-09-22T03:48:33.361Z,19.63
2022-09-22T03:51:01.150Z,17.47
2022-09-22T03:53:29.109Z,19.70
2022-09-22T03:56:16.867Z,16.93
2022-09-22T03:58:45.141Z,18.47
2022-09-22T04:01:13.377Z,19.37
2022-09-22T04:03:41.257Z,17.67
2022-09-22T04:06:10.845Z,20.70
2022-09-22T04:08:38.669Z,17.93
2022-09-22T04:11:08.430Z,21.93
2022-09-22T04:13:36.215Z,18.80
2022-09-22T04:16:06.041Z,23.50
2022-09-22T04:18:34.419Z,21.40
2022-09-22T04:21:02.053Z,17.27
2022-09-22T04:23:29.643Z,22.03
2022-09-22T04:25:57.325Z,19.90
2022-09-22T04:28:25.326Z,20.70
2022-09-22T04:30:54.015Z,21.10
2022-09-22T04:33:24.646Z,20.57
2022-09-22T04:35:54.201Z,25.93
2022-09-22T04:38:23.530Z,20.10
2022-09-22T04:40:54.709Z,20.37
2022-09-22T04:43:23.855Z,18.37
2022-09-22T04:45:52.608Z,19.77
2022-09-22T04:48:21.569Z,22.17
2022-09-22T04:50:50.319Z,19.67
2022-09-22T04:53:18.480Z,21.30
2022-09-22T04:55:46.154Z,23.07
2022-09-22T04:58:14.143Z,17.30
2022-09-22T05:00:42.050Z,20.23
2022-09-22T05:03:19.886Z,19.80
2022-09-22T05:05:49.721Z,19.47
2022-09-22T05:08:17.950Z,26.27
2022-09-22T05:10:46.499Z,20.70
2022-09-22T05:13:14.247Z,20.03
2022-09-22T05:15:42.403Z,21.07
2022-09-22T05:18:10.076Z,23.00
2022-09-22T05:20:39.307Z,19.30
2022-09-22T05:23:07.376Z,19.27
2022-09-22T05:25:35.264Z,19.30
2022-09-22T05:28:03.218Z,19.10
2022-09-22T05:30:31.138Z,21.10
2022-09-22T05:32:58.812Z,23.83
2022-09-22T05:35:26.929Z,24.97
2022-09-22T05:37:54.985Z,22.33
2022-09-22T05:40:25.106Z,21.10
2022-09-22T05:42:54.988Z,26.73
2022-09-22T05:45:23.070Z,25.73
2022-09-22T05:47:51.716Z,20.03
2022-09-22T05:50:23.853Z,24.60
2022-09-22T05:52:52.031Z,21.90
2022-09-22T05:55:19.867Z,22.97
2022-09-22T05:57:48.544Z,23.77
2022-09-22T06:00:16.707Z,30.50
2022-09-22T06:02:45.304Z,25.90
2022-09-22T06:05:16.343Z,26.17
2022-09-22T06:07:45.846Z,31.10
2022-09-22T06:10:13.438Z,29.93
2022-09-22T06:12:41.245Z,30.97
2022-09-22T06:15:09.857Z,28.77
2022-09-22T06:17:37.454Z,26.23
2022-09-22T06:20:06.531Z,25.07
2022-09-22T06:22:36.487Z,25.87
2022-09-22T06:25:05.251Z,25.03
2022-09-22T06:27:33.277Z,24.17
2022-09-22T06:30:00.989Z,23.87
2022-09-22T06:32:28.599Z,23.00
2022-09-22T06:34:56.896Z,25.33
2022-09-22T06:37:24.765Z,21.53
2022-09-22T06:39:52.412Z,21.70
2022-09-22T06:42:20.044Z,25.70
2022-09-22T06:44:48.131Z,23.43
2022-09-22T06:47:15.972Z,26.30
2022-09-22T06:49:43.640Z,25.77
2022-09-22T06:52:15.050Z,18.93
2022-09-22T06:54:42.845Z,16.63
2022-09-22T06:57:11.635Z,15.77
2022-09-22T06:59:41.049Z,16.20
2022-09-22T07:02:10.677Z,10.87
2022-09-22T07:04:38.416Z,11.77
2022-09-22T07:07:05.998Z,8.27
2022-09-22T07:09:34.186Z,10.53
2022-09-22T07:12:02.312Z,11.47
2022-09-22T07:14:29.999Z,9.70
2022-09-22T07:16:57.538Z,9.67
2022-09-22T07:19:25.224Z,8.30
2022-09-22T07:21:52.926Z,10.03
2022-09-22T07:24:20.675Z,9.67
2022-09-22T07:26:48.465Z,11.93
2022-09-22T07:29:16.941Z,9.63
2022-09-22T07:31:44.809Z,7.63
2022-09-22T07:34:14.916Z,6.70
2022-09-22T07:36:42.621Z,6.60
2022-09-22T07:39:11.397Z,11.80
2022-09-22T07:41:43.508Z,7.87
2022-09-22T07:44:34.318Z,6.47
2022-09-22T07:47:04.869Z,11.70
2022-09-22T07:49:32.603Z,8.20
2022-09-22T07:52:00.546Z,7.70
2022-09-22T07:54:28.559Z,7.43
2022-09-22T07:56:59.003Z,8.00
2022-09-22T07:59:27.633Z,7.20
2022-09-22T08:01:56.418Z,12.47
2022-09-22T08:04:26.919Z,5.20
2022-09-22T08:06:56.311Z,6.97
2022-09-22T08:09:26.502Z,5.33
2022-09-22T08:11:54.810Z,5.53
2022-09-22T08:14:23.944Z,8.50
2022-09-22T08:16:53.958Z,7.77
2022-09-22T08:19:24.684Z,3.87
2022-09-22T08:21:54.681Z,6.23
2022-09-22T08:24:23.961Z,4.67
2022-09-22T08:26:55.956Z,5.63
2022-09-22T08:29:24.619Z,8.30
2022-09-22T08:31:54.270Z,5.00
2022-09-22T08:34:22.702Z,6.17
2022-09-22T08:36:52.682Z,5.50
2022-09-22T08:39:23.175Z,5.60
2022-09-22T08:42:23.583Z,5.93
2022-09-22T08:45:15.836Z,9.63
2022-09-22T08:48:15.599Z,5.73
2022-09-22T08:51:20.906Z,7.33
2022-09-22T08:53:51.801Z,5.77
2022-09-22T08:57:30.600Z,6.83
2022-09-22T09:00:18.983Z,6.33
2022-09-22T09:03:32.806Z,10.90
2022-09-22T09:06:47.499Z,14.90
2022-09-22T09:09:46.946Z,7.50
2022-09-22T09:12:47.018Z,9.43
2022-09-22T09:16:08.956Z,7.53
2022-09-22T09:18:47.568Z,8.50
2022-09-22T09:21:16.267Z,9.73
2022-09-22T09:26:49.739Z,5.43
2022-09-22T09:29:29.867Z,6.63
2022-09-22T09:32:04.245Z,7.63
2022-09-22T09:34:33.780Z,6.60
2022-09-22T09:37:16.005Z,7.90
2022-09-22T09:39:46.316Z,8.03
2022-09-22T09:42:33.251Z,7.37
2022-09-22T09:45:02.982Z,7.80
2022-09-22T09:48:20.035Z,8.50
2022-09-22T09:50:48.451Z,12.27
2022-09-22T09:53:41.475Z,7.13
2022-09-22T09:56:31.861Z,9.23
2022-09-22T09:59:31.005Z,12.90
2022-09-22T10:02:01.266Z,7.03
2022-09-22T10:04:37.332Z,7.07
2022-09-22T10:07:24.821Z,8.80
2022-09-22T10:09:56.350Z,7.00
2022-09-22T10:12:35.595Z,8.23
2022-09-22T10:15:22.983Z,6.87
2022-09-22T10:17:51.389Z,7.37
2022-09-22T10:20:34.575Z,4.63
2022-09-22T10:23:24.033Z,2.93
2022-09-22T10:25:51.908Z,4.60
2022-09-22T10:28:22.263Z,4.60
2022-09-22T10:31:05.201Z,4.27
2022-09-22T10:33:33.920Z,4.67
2022-09-22T10:36:12.658Z,5.60
2022-09-22T10:38:43.839Z,7.97
2022-09-22T10:41:30.899Z,4.03
2022-09-22T10:44:37.947Z,11.73
2022-09-22T10:48:02.393Z,5.00
2022-09-22T10:50:56.055Z,3.13
2022-09-22T10:54:00.860Z,4.10
2022-09-22T10:57:10.224Z,4.73
2022-09-22T11:00:38.258Z,3.87
2022-09-22T11:04:03.735Z,2.80
2022-09-22T11:08:18.538Z,9.67
2022-09-22T11:12:07.570Z,3.57
2022-09-22T11:15:31.251Z,2.53
2022-09-22T11:19:16.100Z,2.53
2022-09-22T11:22:24.362Z,5.57
2022-09-22T11:25:32.370Z,4.40
2022-09-22T11:29:22.512Z,3.00
2022-09-22T11:32:47.695Z,2.30
2022-09-22T11:35:51.076Z,2.83
2022-09-22T11:39:02.041Z,2.70
2022-09-22T11:42:00.456Z,2.53
2022-09-22T11:44:43.357Z,1.93
2022-09-22T11:47:39.583Z,2.23
2022-09-22T11:50:51.400Z,3.53
2022-09-22T11:53:56.693Z,3.53
2022-09-22T11:57:02.127Z,5.00
2022-09-22T12:00:16.192Z,3.87
2022-09-22T12:03:12.251Z,6.00
2022-09-22T12:06:12.265Z,3.03
2022-09-22T12:08:57.977Z,3.40
2022-09-22T12:11:29.361Z,6.53
2022-09-22T12:14:01.252Z,5.40
2022-09-22T12:17:26.098Z,6.83
2022-09-22T12:20:35.704Z,2.97
2022-09-22T12:23:45.264Z,2.90
2022-09-22T12:26:39.099Z,2.10
2022-09-22T12:29:31.014Z,3.73
2022-09-22T12:32:00.294Z,3.00
2022-09-22T12:34:40.072Z,3.20
2022-09-22T12:37:36.400Z,3.63
2022-09-22T12:40:37.455Z,2.00
2022-09-22T12:43:06.372Z,2.33
2022-09-22T12:45:45.352Z,3.77
2022-09-22T12:48:34.847Z,2.63
2022-09-22T12:51:33.313Z,3.57
2022-09-22T12:54:22.607Z,2.57
2022-09-22T12:57:09.413Z,2.10
2022-09-22T12:59:37.509Z,3.90
2022-09-22T13:02:18.383Z,2.50
2022-09-22T13:04:55.251Z,2.87
2022-09-22T13:07:43.597Z,3.77
2022-09-22T13:10:43.474Z,2.07
2022-09-22T13:13:36.844Z,3.73
2022-09-22T13:16:16.754Z,3.00
2022-09-22T13:19:00.361Z,3.17
2022-09-22T13:21:33.650Z,2.90
2022-09-22T13:24:06.475Z,2.70
2022-09-22T13:26:41.989Z,2.20
2022-09-22T13:29:21.488Z,3.80
2022-09-22T13:31:57.900Z,5.00
2022-09-22T13:34:36.725Z,2.83
2022-09-22T13:37:22.425Z,2.60
2022-09-22T13:39:55.462Z,2.60
2022-09-22T13:42:32.694Z,3.27
2022-09-22T13:45:24.001Z,3.93
2022-09-22T13:48:08.302Z,2.93
2022-09-22T13:50:58.095Z,4.73
2022-09-22T13:53:26.278Z,3.37
2022-09-22T13:55:54.556Z,4.43
2022-09-22T13:58:39.354Z,2.43
2022-09-22T14:01:30.361Z,3.00
2022-09-22T14:03:58.429Z,2.87
2022-09-22T14:06:37.087Z,2.30
2022-09-22T14:09:05.076Z,2.23
2022-09-22T14:11:33.534Z,4.07
2022-09-22T14:14:03.041Z,3.03
2022-09-22T14:16:59.972Z,5.50
2022-09-22T14:19:52.789Z,7.47
2022-09-22T14:22:32.470Z,2.80
2022-09-22T14:25:05.071Z,4.30
2022-09-22T14:27:59.833Z,3.40
2022-09-22T14:30:31.333Z,4.10
2022-09-22T14:33:04.393Z,2.23
2022-09-22T14:35:37.489Z,4.20
2022-09-22T14:38:16.918Z,2.67
2022-09-22T14:40:58.959Z,4.43
2022-09-22T14:43:38.007Z,3.00
2022-09-22T14:46:36.798Z,3.87
2022-09-22T14:49:49.610Z,2.57
2022-09-22T14:52:49.338Z,2.70
2022-09-22T14:55:39.534Z,2.20
2022-09-22T14:58:22.208Z,4.17
2022-09-22T15:01:42.163Z,2.73
2022-09-22T15:04:30.455Z,5.47
2022-09-22T15:06:59.487Z,3.40
2022-09-22T15:09:38.549Z,3.03
2022-09-22T15:12:27.213Z,2.43
2022-09-22T15:15:00.437Z,2.63
2022-09-22T15:18:04.922Z,2.70
2022-09-22T15:20:44.978Z,2.07
2022-09-22T15:23:28.433Z,2.10
2022-09-22T15:26:05.217Z,2.77
2022-09-22T15:28:37.864Z,2.50
2022-09-22T15:31:06.953Z,3.40
2022-09-22T15:33:34.627Z,2.57
2022-09-22T15:36:15.899Z,5.13
2022-09-22T15:38:44.413Z,2.87
2022-09-22T15:41:13.681Z,3.20
2022-09-22T15:43:42.731Z,3.40
2022-09-22T15:46:37.750Z,4.10
2022-09-22T15:49:26.479Z,4.30
2022-09-22T15:51:56.746Z,3.00
2022-09-22T15:54:26.845Z,3.57
2022-09-22T15:56:59.798Z,4.30
2022-09-22T15:59:33.532Z,2.87
2022-09-22T16:02:01.878Z,2.70
2022-09-22T16:04:32.474Z,2.33
2022-09-22T16:07:12.550Z,3.57
2022-09-22T16:09:40.440Z,2.30
2022-09-22T16:12:13.873Z,2.57
2022-09-22T16:14:42.243Z,2.83
2022-09-22T16:17:09.828Z,6.70
2022-09-22T16:19:37.467Z,2.77
2022-09-22T16:22:05.995Z,3.27
2022-09-22T16:24:33.577Z,3.90
2022-09-22T16:27:04.578Z,2.57
2022-09-22T16:29:33.670Z,2.87
2022-09-22T16:32:01.572Z,2.90
2022-09-22T16:34:29.684Z,4.93
2022-09-22T16:36:57.351Z,2.10
2022-09-22T16:39:25.286Z,3.20
2022-09-22T16:41:52.955Z,4.33
2022-09-22T16:44:22.152Z,2.97
2022-09-22T16:46:49.860Z,2.00
2022-09-22T16:49:20.091Z,3.10
2022-09-22T16:51:50.858Z,2.70
2022-09-22T16:54:20.350Z,2.30
2022-09-22T16:56:51.448Z,3.20
2022-09-22T16:59:23.513Z,2.70
2022-09-22T17:01:51.850Z,2.80
2022-09-22T17:04:20.379Z,2.40
2022-09-22T17:06:49.537Z,3.33
2022-09-22T17:09:19.232Z,2.77
2022-09-22T17:11:49.283Z,3.73
2022-09-22T17:14:22.176Z,10.53
2022-09-22T17:16:57.562Z,6.67
2022-09-22T17:19:28.176Z,10.47
2022-09-22T17:21:57.731Z,6.53
2022-09-22T17:24:29.036Z,4.30
2022-09-22T17:26:59.389Z,6.60
2022-09-22T17:29:32.749Z,7.40
2022-09-22T17:32:08.117Z,3.20
2022-09-22T17:34:37.783Z,3.33
2022-09-22T17:37:06.026Z,4.90
2022-09-22T17:39:34.363Z,6.10
2022-09-22T17:42:02.270Z,5.57
2022-09-22T17:44:33.667Z,5.07
2022-09-22T17:47:20.065Z,6.97
2022-09-22T17:50:06.097Z,9.60
2022-09-22T17:52:39.894Z,10.53
2022-09-22T17:55:23.414Z,8.90
2022-09-22T17:57:52.761Z,7.33
2022-09-22T18:00:24.533Z,8.97
2022-09-22T18:02:54.427Z,8.10
2022-09-22T18:05:27.362Z,11.33
2022-09-22T18:07:58.567Z,7.47
2022-09-22T18:10:34.220Z,10.50
2022-09-22T18:13:04.154Z,10.00
2022-09-22T18:15:31.958Z,8.70
2022-09-22T18:17:59.628Z,12.47
2022-09-22T18:20:27.904Z,9.27
2022-09-22T18:22:56.227Z,8.63
2022-09-22T18:25:25.711Z,9.17
2022-09-22T18:27:54.606Z,10.40
2022-09-22T18:30:22.474Z,10.73
2022-09-22T18:32:50.309Z,10.83
2022-09-22T18:35:18.703Z,10.93
2022-09-22T18:37:46.407Z,9.10
2022-09-22T18:40:14.066Z,8.33
2022-09-22T18:42:45.139Z,7.30
2022-09-22T18:45:14.232Z,11.87
2022-09-22T18:47:43.484Z,9.73
2022-09-22T18:50:17.213Z,8.70
2022-09-22T18:52:47.991Z,10.70
2022-09-22T18:55:18.436Z,12.40
2022-09-22T18:57:48.174Z,11.40
2022-09-22T19:00:21.117Z,11.37
2022-09-22T19:02:51.068Z,9.13
2022-09-22T19:05:19.578Z,10.53
2022-09-22T19:07:48.444Z,10.40
2022-09-22T19:10:23.495Z,10.10
2022-09-22T19:12:54.677Z,10.97
2022-09-22T19:15:23.216Z,10.87
2022-09-22T19:17:51.069Z,9.40
2022-09-22T19:20:24.053Z,11.80
2022-09-22T19:22:53.991Z,10.00
2022-09-22T19:25:23.301Z,9.87
2022-09-22T19:27:54.139Z,7.90
2022-09-22T19:30:26.628Z,10.30
2022-09-22T19:32:57.376Z,13.33
2022-09-22T19:35:25.057Z,9.20
2022-09-22T19:37:54.440Z,12.47
2022-09-22T19:40:25.204Z,13.03
2022-09-22T19:42:55.393Z,14.10
2022-09-22T19:45:25.743Z,11.87
2022-09-22T19:47:58.550Z,12.73
2022-09-22T19:50:27.050Z,13.93
2022-09-22T19:52:54.657Z,14.90
2022-09-22T19:55:22.505Z,15.70
2022-09-22T19:57:52.424Z,17.60
2022-09-22T20:00:26.459Z,21.17
2022-09-22T20:02:58.944Z,15.73
2022-09-22T20:05:37.069Z,15.83
2022-09-22T20:08:15.930Z,16.13
2022-09-22T20:11:16.452Z,14.77
2022-09-22T20:14:02.329Z,12.83
2022-09-22T20:16:31.676Z,13.13
2022-09-22T20:18:59.331Z,14.70
2022-09-22T20:21:27.963Z,14.80
2022-09-22T20:23:55.662Z,13.40
2022-09-22T20:26:24.349Z,11.83
2022-09-22T20:28:52.648Z,16.63
2022-09-22T20:31:20.586Z,10.30
2022-09-22T20:33:48.575Z,10.80
2022-09-22T20:36:16.720Z,10.00
2022-09-22T20:38:44.474Z,12.90
2022-09-22T20:41:32.298Z,9.83
2022-09-22T20:44:00.205Z,10.20
2022-09-22T20:46:27.995Z,12.23
2022-09-22T20:49:00.503Z,10.43
2022-09-22T20:51:28.563Z,9.20
2022-09-22T20:53:56.306Z,10.23
2022-09-22T20:56:24.093Z,9.03
2022-09-22T20:58:51.915Z,9.27
2022-09-22T21:01:20.117Z,9.57
2022-09-22T21:03:48.701Z,9.53
2022-09-22T21:06:18.045Z,9.13
2022-09-22T21:09:05.138Z,7.43
2022-09-22T21:11:33.702Z,8.73
2022-09-22T21:14:05.796Z,9.93
2022-09-22T21:16:40.130Z,9.70
2022-09-22T21:19:08.408Z,7.50
2022-09-22T21:21:37.918Z,8.03
2022-09-22T21:24:06.596Z,11.00
2022-09-22T21:26:34.848Z,8.30
2022-09-22T21:29:02.752Z,9.80
2022-09-22T21:31:30.510Z,12.60
2022-09-22T21:33:58.389Z,11.07
2022-09-22T21:36:26.602Z,10.10
2022-09-22T21:38:59.409Z,8.00
2022-09-22T21:41:33.845Z,7.70
2022-09-22T21:44:04.077Z,8.40
2022-09-22T21:46:36.090Z,8.87
2022-09-22T21:49:05.619Z,9.23
2022-09-22T21:51:42.884Z,7.80
2022-09-22T21:54:20.088Z,7.33
2022-09-22T21:56:50.553Z,7.97
2022-09-22T21:59:18.517Z,11.23
2022-09-22T22:01:46.314Z,8.30
2022-09-22T22:04:15.281Z,9.87
2022-09-22T22:06:46.795Z,11.13
2022-09-22T22:09:23.180Z,8.90
2022-09-22T22:11:59.495Z,7.40
2022-09-22T22:14:35.017Z,15.47
2022-09-22T22:17:02.729Z,8.17
2022-09-22T22:19:31.106Z,9.50
2022-09-22T22:21:58.850Z,9.87
2022-09-22T22:24:42.565Z,9.47
2022-09-22T22:27:11.705Z,9.10
2022-09-22T22:29:39.574Z,14.60
2022-09-22T22:32:11.021Z,9.33
2022-09-22T22:34:39.553Z,12.10
2022-09-22T22:37:09.764Z,9.70
2022-09-22T22:39:38.044Z,15.80
2022-09-22T22:42:07.134Z,8.03
2022-09-22T22:44:35.368Z,11.20
2022-09-22T22:47:03.156Z,8.27
2022-09-22T22:49:31.481Z,9.23
2022-09-22T22:51:59.312Z,10.43
2022-09-22T22:54:26.914Z,9.80
2022-09-22T22:56:54.546Z,10.07
2022-09-22T22:59:22.178Z,8.83
2022-09-22T23:01:49.838Z,10.73
2022-09-22T23:04:18.207Z,7.80
2022-09-22T23:06:47.366Z,8.63
2022-09-22T23:09:17.629Z,8.50
2022-09-22T23:11:46.543Z,10.53
2022-09-22T23:14:16.234Z,9.50
2022-09-22T23:16:47.316Z,7.00
2022-09-22T23:19:19.126Z,7.50
2022-09-22T23:21:47.771Z,7.87
2022-09-22T23:24:19.216Z,7.80
2022-09-22T23:26:50.825Z,9.77
2022-09-22T23:29:18.653Z,10.07
2022-09-22T23:31:46.240Z,9.40
2022-09-22T23:34:14.139Z,9.73
2022-09-22T23:36:42.000Z,10.23
2022-09-22T23:39:12.944Z,12.13
2022-09-22T23:41:40.636Z,9.70
2022-09-22T23:44:08.499Z,9.00
2022-09-22T23:46:38.273Z,13.23
2022-09-22T23:49:06.755Z,8.83
2022-09-22T23:51:34.385Z,10.50
2022-09-22T23:54:02.467Z,9.37
2022-09-22T23:56:30.071Z,8.53
2022-09-22T23:58:57.708Z,9.83
